Time;durP1;ratioP1;P1;durP2;ratioP2;P2;SDS_P1;SDS_P2;PMS_P1;PMS_P2;Temp;Humidity;BMP_temperature;BMP_pressure;BME280_temperature;BME280_humidity;BME280_pressure;Samples;Min_cycle;Max_cycle;Signal;HPM_P1;HPM_P2
2023/07/08 00:01:38;;;;;;;3.83;1.85;;;;;;;19.99;68.75;101760.03;6197137;28;20043;-76
2023/07/08 00:04:40;;;;;;;3.50;2.03;;;;;;;19.95;68.50;101750.56;6189342;28;20047;-76
2023/07/08 00:07:43;;;;;;;3.17;1.80;;;;;;;19.90;69.38;101759.91;6203508;28;20046;-76
2023/07/08 00:10:44;;;;;;;4.00;2.03;;;;;;;19.87;69.79;101754.78;6205305;28;20050;-76
2023/07/08 00:13:46;;;;;;;2.58;1.50;;;;;;;19.85;70.10;101752.25;6205091;28;20042;-76
2023/07/08 00:16:47;;;;;;;4.50;1.83;;;;;;;19.80;70.80;101746.38;6198100;28;20054;-76
2023/07/08 00:19:50;;;;;;;5.30;1.60;;;;;;;19.79;71.45;101755.34;6204385;28;20447;-76
2023/07/08 00:22:53;;;;;;;3.53;2.08;;;;;;;19.74;71.47;101749.53;6204712;28;20181;-76
2023/07/08 00:25:54;;;;;;;3.40;1.95;;;;;;;19.62;72.00;101743.31;6205161;28;20120;-76
2023/07/08 00:28:57;;;;;;;2.38;1.70;;;;;;;19.60;71.63;101739.03;6197019;28;20062;-76
2023/07/08 00:31:58;;;;;;;2.38;1.67;;;;;;;19.58;72.28;101746.31;6204670;28;20046;-76
2023/07/08 00:34:59;;;;;;;4.30;1.85;;;;;;;19.52;72.22;101745.78;6212664;28;20049;-76
2023/07/08 00:38:03;;;;;;;2.67;1.42;;;;;;;19.45;73.14;101744.56;6197385;28;20363;-76
2023/07/08 00:41:10;;;;;;;3.50;1.77;;;;;;;19.38;74.34;101737.13;6196487;28;20050;-76
2023/07/08 00:44:13;;;;;;;3.72;1.83;;;;;;;19.39;74.03;101737.00;6196280;28;20054;-76
2023/07/08 00:47:16;;;;;;;4.68;2.03;;;;;;;19.32;73.64;101743.75;6204699;28;20049;-76
2023/07/08 00:50:18;;;;;;;2.35;1.45;;;;;;;19.31;73.63;101735.91;6204429;28;20050;-76
2023/07/08 00:53:29;;;;;;;2.45;1.88;;;;;;;19.27;73.86;101740.59;6204280;28;20046;-76
2023/07/08 00:56:35;;;;;;;4.03;1.75;;;;;;;19.23;73.28;101739.97;6204345;28;20050;-75
2023/07/08 00:59:42;;;;;;;1.67;1.55;;;;;;;19.20;74.06;101739.34;6204377;28;20049;-76
2023/07/08 01:02:49;;;;;;;3.92;1.73;;;;;;;19.18;74.50;101738.59;6203694;28;20065;-76
2023/07/08 01:05:52;;;;;;;2.25;1.80;;;;;;;19.25;74.53;101735.34;6204360;28;20054;-76
2023/07/08 01:08:55;;;;;;;2.67;1.77;;;;;;;19.18;75.06;101733.28;6203847;28;20042;-75
2023/07/08 01:11:59;;;;;;;2.40;1.50;;;;;;;19.23;75.13;101736.44;6196023;28;20053;-75
2023/07/08 01:15:03;;;;;;;3.13;1.70;;;;;;;19.27;74.52;101733.44;6203796;28;20362;-75
2023/07/08 01:18:04;;;;;;;4.75;1.90;;;;;;;19.26;75.38;101730.91;6203866;28;20109;-75
2023/07/08 01:21:27;;;;;;;2.88;1.92;;;;;;;19.31;75.06;101733.22;6201470;28;20053;-75
2023/07/08 01:24:31;;;;;;;2.97;2.22;;;;;;;19.17;75.23;101724.44;6207525;28;20042;-76
2023/07/08 01:27:36;;;;;;;2.70;1.52;;;;;;;19.25;74.86;101727.34;6194935;28;20047;-76
2023/07/08 01:30:38;;;;;;;3.30;2.05;;;;;;;19.21;75.02;101723.25;6187431;28;20061;-75
2023/07/08 01:33:40;;;;;;;3.13;1.80;;;;;;;19.15;75.82;101718.34;6195289;28;20047;-76
2023/07/08 01:36:48;;;;;;;2.88;1.95;;;;;;;19.09;76.30;101713.50;6195066;28;20047;-76
2023/07/08 01:39:51;;;;;;;5.05;1.73;;;;;;;19.07;75.71;101707.41;6187290;28;20054;-76
2023/07/08 01:42:53;;;;;;;3.55;1.80;;;;;;;19.03;75.99;101708.63;6178585;28;20447;-76
2023/07/08 01:45:55;;;;;;;2.80;1.95;;;;;;;18.98;75.97;101706.25;6179058;28;20054;-75
2023/07/08 01:48:59;;;;;;;2.88;1.95;;;;;;;18.94;75.91;101701.28;6194993;28;20066;-76
2023/07/08 01:52:01;;;;;;;2.78;1.60;;;;;;;18.86;75.68;101696.53;6194810;28;20054;-75
2023/07/08 01:55:04;;;;;;;2.85;2.00;;;;;;;18.80;76.56;101699.63;6187411;28;20050;-76
2023/07/08 01:58:05;;;;;;;4.20;2.08;;;;;;;18.77;77.12;101699.03;6194737;28;20050;-75
2023/07/08 02:01:07;;;;;;;3.40;1.88;;;;;;;18.72;77.16;101708.19;6185074;28;20399;-75
2023/07/08 02:04:09;;;;;;;2.70;2.10;;;;;;;18.68;77.00;101711.16;6178486;28;20046;-76
2023/07/08 02:07:10;;;;;;;1.92;1.50;;;;;;;18.62;76.92;101700.91;6196375;28;20058;-76
2023/07/08 02:10:13;;;;;;;3.58;2.08;;;;;;;18.56;79.51;101704.03;6202838;28;20061;-75
2023/07/08 02:13:14;;;;;;;3.13;1.90;;;;;;;18.53;79.11;101697.13;6202381;28;20050;-76
2023/07/08 02:16:15;;;;;;;4.60;1.60;;;;;;;18.51;79.51;101683.91;6197990;28;20054;-76
2023/07/08 02:19:17;;;;;;;2.95;1.95;;;;;;;18.51;79.34;101683.91;6196998;28;20073;-75
2023/07/08 02:22:18;;;;;;;3.80;2.50;;;;;;;18.47;78.94;101678.94;6201536;28;20354;-75
2023/07/08 02:25:21;;;;;;;2.38;1.83;;;;;;;18.45;78.72;101673.72;6191390;28;20046;-75
2023/07/08 02:28:22;;;;;;;3.28;2.10;;;;;;;18.40;79.29;101675.03;6200702;28;20046;-76
2023/07/08 02:31:24;;;;;;;3.25;1.80;;;;;;;18.32;79.70;101670.22;6187239;28;20042;-75
2023/07/08 02:34:26;;;;;;;3.50;2.10;;;;;;;18.24;80.01;101672.56;6197908;28;20046;-76
2023/07/08 02:37:27;;;;;;;3.85;2.15;;;;;;;18.33;79.57;101668.41;6202070;28;20335;-75
2023/07/08 02:40:29;;;;;;;5.85;2.33;;;;;;;18.31;79.97;101673.00;6202052;28;20053;-75
2023/07/08 02:43:31;;;;;;;4.88;1.95;;;;;;;18.33;80.24;101677.25;6201509;28;20042;-75
2023/07/08 02:46:32;;;;;;;2.88;2.05;;;;;;;18.27;80.36;101675.03;6201918;28;20069;-75
2023/07/08 02:49:35;;;;;;;5.25;2.80;;;;;;;18.21;80.83;101672.78;6201617;28;20046;-75
2023/07/08 02:52:36;;;;;;;3.42;1.98;;;;;;;18.23;80.54;101677.06;6201684;28;20050;-75
2023/07/08 02:55:42;;;;;;;2.88;1.77;;;;;;;18.24;80.53;101675.25;6201767;28;20053;-76
2023/07/08 02:58:43;;;;;;;4.85;1.77;;;;;;;18.24;79.58;101669.91;6201570;28;20466;-75
2023/07/08 03:01:46;;;;;;;2.70;1.98;;;;;;;18.14;79.83;101676.84;6201056;28;20050;-76
2023/07/08 03:04:49;;;;;;;15.13;2.65;;;;;;;18.08;80.00;101669.31;6201536;28;20320;-76
2023/07/08 03:07:51;;;;;;;3.25;1.95;;;;;;;18.05;80.04;101675.69;6201513;28;20058;-76
2023/07/08 03:10:58;;;;;;;3.00;1.88;;;;;;;17.99;81.19;101668.16;6201516;28;20053;-75
2023/07/08 03:13:59;;;;;;;4.00;2.42;;;;;;;17.97;82.11;101662.91;6201273;28;20354;-76
2023/07/08 03:17:00;;;;;;;4.25;2.17;;;;;;;17.95;81.65;101670.16;6186793;28;20054;-76
2023/07/08 03:20:04;;;;;;;3.50;2.10;;;;;;;17.87;82.56;101674.31;6178886;28;20058;-76
2023/07/08 03:23:05;;;;;;;5.20;2.30;;;;;;;17.84;82.84;101670.03;6181110;28;20074;-76
2023/07/08 03:26:14;;;;;;;3.25;1.83;;;;;;;17.90;82.96;101674.09;6193984;28;20046;-76
2023/07/08 03:29:19;;;;;;;6.13;2.23;;;;;;;17.89;81.75;101672.38;6181464;28;20061;-76
2023/07/08 03:32:20;;;;;;;3.47;1.90;;;;;;;17.78;81.77;101673.13;6188519;28;20379;-75
2023/07/08 03:35:22;;;;;;;4.50;2.22;;;;;;;17.69;82.58;101669.25;6184235;28;20041;-77
2023/07/08 03:38:24;;;;;;;2.80;1.98;;;;;;;17.68;83.12;101672.03;6174531;28;20185;-76
2023/07/08 03:41:26;;;;;;;3.88;2.05;;;;;;;17.72;83.91;101682.34;6165257;28;20535;-75
2023/07/08 03:44:28;;;;;;;4.50;2.15;;;;;;;17.71;84.88;101680.66;6190930;28;20051;-76
2023/07/08 03:47:29;;;;;;;4.78;2.30;;;;;;;17.67;85.83;101675.66;6195267;28;20049;-76
2023/07/08 03:50:30;;;;;;;4.60;1.85;;;;;;;17.68;86.16;101686.19;6188109;28;20572;-76
2023/07/08 03:53:31;;;;;;;4.90;2.75;;;;;;;17.66;86.43;101684.56;6185043;28;20094;-76
2023/07/08 03:56:34;;;;;;;3.80;2.42;;;;;;;17.65;86.38;101678.41;6188616;28;20065;-75
2023/07/08 03:59:35;;;;;;;3.58;2.45;;;;;;;17.66;86.32;101674.78;6193001;28;20061;-75
2023/07/08 04:02:37;;;;;;;3.88;1.80;;;;;;;17.64;85.97;101682.03;6188535;28;20049;-76
2023/07/08 04:05:38;;;;;;;2.83;2.33;;;;;;;17.65;85.73;101673.09;6186382;28;20050;-76
2023/07/08 04:08:40;;;;;;;3.88;2.20;;;;;;;17.65;85.79;101675.75;6186150;28;20431;-76
2023/07/08 04:11:42;;;;;;;2.67;2.28;;;;;;;17.68;86.23;101680.88;6190450;28;20049;-76
2023/07/08 04:14:43;;;;;;;3.67;2.00;;;;;;;17.64;86.50;101682.03;6168052;28;20039;-75
2023/07/08 04:17:47;;;;;;;3.33;2.40;;;;;;;17.64;86.69;101667.88;6195931;28;20046;-76
2023/07/08 04:20:52;;;;;;;4.88;2.08;;;;;;;17.64;87.13;101667.88;6205050;28;20064;-76
2023/07/08 04:23:53;;;;;;;3.40;2.20;;;;;;;17.65;87.33;101675.75;6204669;28;20038;-76
2023/07/08 04:26:56;;;;;;;3.05;2.10;;;;;;;17.66;86.59;101674.78;6204800;28;20327;-75
2023/07/08 04:29:57;;;;;;;4.43;2.50;;;;;;;17.59;86.62;101676.19;6189050;28;20359;-75
2023/07/08 04:32:58;;;;;;;3.35;1.70;;;;;;;17.62;86.01;101675.09;6204512;28;20046;-76
2023/07/08 04:36:00;;;;;;;3.35;2.28;;;;;;;17.61;87.27;101681.38;6196613;28;20054;-75
2023/07/08 04:39:01;;;;;;;2.72;1.92;;;;;;;17.63;88.58;101688.31;6204290;28;20157;-76
2023/07/08 04:42:05;;;;;;;4.43;2.30;;;;;;;17.65;88.85;101682.88;6204251;28;20447;-76
2023/07/08 04:45:08;;;;;;;2.70;1.95;;;;;;;17.70;89.15;101699.34;6204717;28;20141;-76
2023/07/08 04:48:13;;;;;;;4.00;2.20;;;;;;;17.72;88.83;101690.34;6204449;28;20061;-76
2023/07/08 04:51:15;;;;;;;2.95;2.08;;;;;;;17.79;88.79;101693.44;6198628;28;20058;-75
2023/07/08 04:54:16;;;;;;;3.88;2.15;;;;;;;17.78;88.10;101691.75;6199647;28;20047;-76
2023/07/08 04:57:20;;;;;;;7.38;2.85;;;;;;;17.82;89.09;101697.72;6200078;28;20054;-75
2023/07/08 05:00:23;;;;;;;6.15;2.17;;;;;;;17.80;88.83;101697.78;6191571;28;20357;-76
2023/07/08 05:03:24;;;;;;;6.80;2.70;;;;;;;17.81;89.42;101691.53;6185734;28;20038;-76
2023/07/08 05:06:26;;;;;;;3.72;2.38;;;;;;;17.86;89.57;101694.75;6193827;28;20054;-75
2023/07/08 05:09:27;;;;;;;3.55;2.58;;;;;;;17.85;90.29;101694.81;6192545;28;20502;-75
2023/07/08 05:12:30;;;;;;;3.08;2.08;;;;;;;17.84;89.92;101696.63;6192332;28;20045;-75
2023/07/08 05:15:31;;;;;;;3.88;3.03;;;;;;;17.83;89.80;101705.56;6190938;28;20046;-76
2023/07/08 05:18:33;;;;;;;4.20;2.50;;;;;;;17.86;90.39;101700.06;6192273;28;20362;-76
2023/07/08 05:21:34;;;;;;;4.10;2.35;;;;;;;17.87;90.02;101698.25;6190474;28;20074;-75
2023/07/08 05:24:36;;;;;;;3.75;2.28;;;;;;;17.90;90.49;101696.22;6202948;28;20050;-75
2023/07/08 05:27:40;;;;;;;6.80;2.80;;;;;;;17.98;90.34;101699.19;6200018;28;20716;-75
2023/07/08 05:30:42;;;;;;;3.33;2.63;;;;;;;18.00;90.21;101696.44;6190192;28;20443;-75
2023/07/08 05:33:43;;;;;;;2.10;1.90;;;;;;;18.06;90.53;101698.66;6192859;28;20050;-75
2023/07/08 05:36:44;;;;;;;3.45;2.00;;;;;;;18.08;90.58;101698.56;6193185;28;20066;-75
2023/07/08 05:39:46;;;;;;;3.50;2.55;;;;;;;18.06;90.91;101703.97;6188341;28;20363;-75
2023/07/08 05:42:48;;;;;;;3.50;2.25;;;;;;;18.10;90.68;101697.50;6187903;28;20049;-75
2023/07/08 05:45:50;;;;;;;6.68;2.83;;;;;;;18.13;90.58;101697.28;6188346;28;20050;-75
2023/07/08 05:48:51;;;;;;;3.95;2.20;;;;;;;18.13;89.82;101699.09;6187300;28;20042;-75
2023/07/08 05:51:52;;;;;;;4.10;2.20;;;;;;;18.15;89.74;101695.34;6191624;28;20058;-75
2023/07/08 05:54:54;;;;;;;3.63;2.67;;;;;;;18.18;89.27;101700.47;6187872;28;20486;-75
2023/07/08 05:57:57;;;;;;;3.00;2.40;;;;;;;18.20;89.37;101703.03;6187975;28;20443;-76
2023/07/08 06:00:59;;;;;;;3.92;2.10;;;;;;;18.25;88.76;101691.09;6195017;28;20061;-76
2023/07/08 06:04:00;;;;;;;3.33;2.25;;;;;;;18.31;89.62;101697.81;6202587;28;20047;-76
2023/07/08 06:07:01;;;;;;;2.95;2.47;;;;;;;18.35;88.39;101696.63;6202633;28;20401;-76
2023/07/08 06:10:03;;;;;;;3.88;2.25;;;;;;;18.39;89.21;101689.25;6202214;28;20058;-75
2023/07/08 06:13:06;;;;;;;3.42;2.45;;;;;;;18.44;89.59;101690.66;6186619;28;20051;-75
2023/07/08 06:16:07;;;;;;;4.03;2.50;;;;;;;18.47;88.09;101687.75;6202333;28;20358;-76
2023/07/08 06:19:09;;;;;;;2.25;1.80;;;;;;;18.54;88.08;101690.84;6202495;28;20046;-75
2023/07/08 06:22:11;;;;;;;6.03;2.55;;;;;;;18.57;88.57;101693.25;6202199;28;20053;-75
2023/07/08 06:25:12;;;;;;;7.28;3.00;;;;;;;18.58;86.13;101694.16;6201002;28;20050;-76
2023/07/08 06:28:15;;;;;;;3.47;2.30;;;;;;;18.67;87.06;101682.84;6202047;28;20050;-76
2023/07/08 06:31:17;;;;;;;6.25;3.03;;;;;;;18.71;85.38;101684.31;6202152;28;20054;-75
2023/07/08 06:34:18;;;;;;;6.25;2.30;;;;;;;18.76;85.99;101690.19;6201706;28;20047;-76
2023/07/08 06:37:20;;;;;;;4.03;2.75;;;;;;;18.83;86.66;101695.91;6202156;28;20061;-76
2023/07/08 06:40:21;;;;;;;2.95;2.30;;;;;;;18.86;86.57;101691.19;6202134;28;20054;-75
2023/07/08 06:43:24;;;;;;;4.00;2.53;;;;;;;18.89;86.05;101688.28;6201477;28;20053;-76
2023/07/08 06:46:25;;;;;;;2.85;2.30;;;;;;;18.93;86.03;101684.44;6201879;28;20054;-75
2023/07/08 06:49:26;;;;;;;4.60;2.47;;;;;;;18.97;84.69;101685.06;6198356;28;20043;-76
2023/07/08 06:52:33;;;;;;;3.67;2.47;;;;;;;19.01;86.00;101684.75;6188912;28;20050;-76
2023/07/08 06:55:35;;;;;;;2.58;2.10;;;;;;;19.08;84.66;101692.28;6197338;28;20427;-76
2023/07/08 06:58:37;;;;;;;4.85;2.60;;;;;;;19.15;86.06;101689.03;6177604;28;20053;-75
2023/07/08 07:01:39;;;;;;;4.05;2.33;;;;;;;19.20;85.67;101689.53;6177029;28;20399;-75
2023/07/08 07:04:40;;;;;;;3.80;2.75;;;;;;;19.24;85.62;101683.03;6198705;28;20042;-76
2023/07/08 07:07:41;;;;;;;3.80;2.63;;;;;;;19.32;84.86;101674.47;6201362;28;20060;-76
2023/07/08 07:10:43;;;;;;;3.88;2.45;;;;;;;19.42;83.69;101667.47;6201642;28;20103;-75
2023/07/08 07:13:45;;;;;;;5.00;2.88;;;;;;;19.52;81.16;101673.78;6201146;28;20050;-75
2023/07/08 07:16:47;;;;;;;5.43;2.70;;;;;;;19.65;81.58;101673.72;6201447;28;20057;-76
2023/07/08 07:19:48;;;;;;;6.57;2.55;;;;;;;19.68;82.16;101670.84;6201265;28;20407;-75
2023/07/08 07:22:51;;;;;;;3.85;2.15;;;;;;;19.72;81.27;101672.31;6200895;28;20047;-76
2023/07/08 07:25:52;;;;;;;3.70;2.33;;;;;;;19.75;81.81;101677.38;6201465;28;20046;-76
2023/07/08 07:28:55;;;;;;;3.45;2.13;;;;;;;19.82;81.35;101671.59;6187102;28;20359;-76
2023/07/08 07:31:56;;;;;;;3.33;2.53;;;;;;;19.89;81.30;101680.81;6184834;28;20059;-76
2023/07/08 07:34:59;;;;;;;4.47;2.70;;;;;;;20.02;77.59;101681.53;6192300;28;20047;-76
2023/07/08 07:38:00;;;;;;;3.70;2.50;;;;;;;20.11;77.86;101674.63;6200970;28;20354;-76
2023/07/08 07:41:05;;;;;;;3.78;2.40;;;;;;;20.20;76.90;101672.09;6201014;28;20065;-76
2023/07/08 07:44:08;;;;;;;3.17;2.28;;;;;;;20.22;77.07;101667.50;6200962;28;20046;-76
2023/07/08 07:47:10;;;;;;;3.63;2.60;;;;;;;20.40;76.83;101667.00;6192034;28;20348;-76
2023/07/08 07:50:11;;;;;;;3.05;2.20;;;;;;;20.43;76.69;101669.41;6193101;28;20451;-76
2023/07/08 07:53:13;;;;;;;6.13;2.33;;;;;;;20.50;76.42;101673.31;6200715;28;20057;-76
2023/07/08 07:56:14;;;;;;;3.80;2.58;;;;;;;20.52;76.14;101666.03;6192756;28;20051;-76
2023/07/08 07:59:17;;;;;;;3.95;2.90;;;;;;;20.57;77.22;101663.84;6183436;28;20050;-76
2023/07/08 08:02:19;;;;;;;4.82;2.95;;;;;;;20.68;74.63;101662.97;6187068;28;20050;-76
2023/07/08 08:05:20;;;;;;;3.85;2.25;;;;;;;20.80;74.91;101663.78;6186483;28;20347;-76
2023/07/08 08:08:22;;;;;;;3.03;2.38;;;;;;;20.90;73.79;101664.75;6190410;28;20061;-76
2023/07/08 08:11:25;;;;;;;4.30;2.40;;;;;;;20.89;73.95;101663.03;6182338;28;20125;-76
2023/07/08 08:14:28;;;;;;;7.47;2.50;;;;;;;21.08;75.47;101660.56;6188669;28;20158;-76
2023/07/08 08:17:29;;;;;;;3.17;2.60;;;;;;;21.22;72.75;101654.06;6195706;28;20333;-75
2023/07/08 08:20:30;;;;;;;4.47;2.10;;;;;;;21.27;73.59;101665.22;6193051;28;20053;-76
2023/07/08 08:23:32;;;;;;;3.70;2.50;;;;;;;21.23;73.69;101658.41;6180750;28;20054;-77
2023/07/08 08:26:33;;;;;;;2.83;2.10;;;;;;;21.24;74.08;101670.78;6185177;28;20057;-76
2023/07/08 08:29:36;;;;;;;3.92;2.40;;;;;;;21.26;73.60;101663.50;6184628;28;20057;-76
2023/07/08 08:32:37;;;;;;;3.88;2.50;;;;;;;21.30;72.75;101664.94;6194259;28;20066;-76
2023/07/08 08:35:38;;;;;;;3.50;2.17;;;;;;;21.43;71.92;101665.63;6204809;28;20450;-76
2023/07/08 08:38:40;;;;;;;2.80;2.35;;;;;;;21.49;71.55;101657.09;6204692;28;20042;-76
2023/07/08 08:41:43;;;;;;;3.30;2.50;;;;;;;21.76;69.34;101664.59;6204056;28;20346;-76
2023/07/08 08:44:46;;;;;;;4.00;2.45;;;;;;;21.75;70.50;101665.53;6182988;28;20326;-76
2023/07/08 08:47:51;;;;;;;3.55;2.00;;;;;;;21.83;70.91;101664.06;6202312;28;20174;-76
2023/07/08 08:50:56;;;;;;;2.42;2.05;;;;;;;21.91;67.58;101658.88;6204670;28;20049;-76
2023/07/08 08:53:58;;;;;;;2.95;2.05;;;;;;;21.91;69.00;101653.53;6204099;28;20053;-76
2023/07/08 08:57:08;;;;;;;2.90;2.10;;;;;;;21.93;69.35;101657.75;6204509;28;20046;-76
2023/07/08 09:00:17;;;;;;;3.75;2.60;;;;;;;22.00;68.23;101658.09;6196853;28;20090;-76
2023/07/08 09:03:24;;;;;;;3.38;2.22;;;;;;;22.14;69.41;101657.75;6203799;28;20331;-76
2023/07/08 09:06:28;;;;;;;3.05;2.15;;;;;;;22.33;65.77;101661.50;6204017;28;20058;-76
2023/07/08 09:09:36;;;;;;;4.70;2.70;;;;;;;22.39;66.73;101661.81;6203942;28;20050;-76
2023/07/08 09:12:37;;;;;;;10.98;5.18;;;;;;;22.34;67.73;101645.28;6203881;28;20046;-76
2023/07/08 09:15:40;;;;;;;3.90;2.25;;;;;;;22.45;68.44;101650.53;6204175;28;20061;-76
2023/07/08 09:18:46;;;;;;;5.20;2.03;;;;;;;22.57;66.08;101642.38;6203726;28;20053;-76
2023/07/08 09:21:53;;;;;;;4.25;2.72;;;;;;;22.63;65.60;101644.53;6203716;28;20050;-76
2023/07/08 09:25:00;;;;;;;4.43;2.50;;;;;;;22.67;66.39;101645.94;6202515;28;20038;-76
2023/07/08 09:28:01;;;;;;;4.82;2.53;;;;;;;22.80;64.05;101641.16;6195513;28;20055;-76
2023/07/08 09:31:07;;;;;;;5.55;2.00;;;;;;;22.97;62.85;101636.94;6195672;28;20047;-76
2023/07/08 09:34:11;;;;;;;3.65;2.25;;;;;;;23.10;62.51;101636.69;6178452;28;20054;-76
2023/07/08 09:37:27;;;;;;;3.83;2.13;;;;;;;23.32;61.14;101631.00;6191961;28;20439;-76
2023/07/08 09:40:31;;;;;;;3.20;2.03;;;;;;;23.23;62.66;101632.72;6196925;28;20042;-76
2023/07/08 09:43:37;;;;;;;2.80;2.38;;;;;;;23.39;61.78;101637.50;6201465;28;20057;-76
2023/07/08 09:46:41;;;;;;;3.38;2.10;;;;;;;23.35;62.62;101635.25;6193456;28;20046;-76
2023/07/08 09:49:45;;;;;;;2.50;1.90;;;;;;;23.50;62.23;101634.66;6181027;28;20356;-76
2023/07/08 09:52:47;;;;;;;3.72;2.15;;;;;;;23.57;62.07;101634.06;6200094;28;20046;-76
2023/07/08 09:55:50;;;;;;;4.97;2.50;;;;;;;23.89;58.37;101645.34;6203057;28;20042;-76
2023/07/08 09:58:52;;;;;;;3.47;2.00;;;;;;;23.90;60.26;101638.97;6202754;28;20058;-76
2023/07/08 10:01:55;;;;;;;2.42;1.80;;;;;;;23.99;61.50;101639.91;6196230;28;20054;-76
2023/07/08 10:04:58;;;;;;;4.70;2.20;;;;;;;24.03;60.77;101636.78;6193376;28;20180;-76
2023/07/08 10:08:01;;;;;;;3.30;2.17;;;;;;;24.16;62.55;101635.59;6202286;28;20359;-76
2023/07/08 10:11:13;;;;;;;4.13;2.33;;;;;;;24.17;60.06;101640.00;6203155;28;20197;-77
2023/07/08 10:14:25;;;;;;;2.85;2.17;;;;;;;24.15;59.97;101636.59;6195526;28;20050;-77
2023/07/08 10:17:30;;;;;;;3.13;2.00;;;;;;;24.14;60.74;101635.75;6202347;28;20058;-77
2023/07/08 10:20:46;;;;;;;3.70;2.10;;;;;;;24.29;59.49;101631.56;6191295;28;20051;-77
2023/07/08 10:23:54;;;;;;;2.90;1.80;;;;;;;24.29;59.74;101633.41;6199500;28;20050;-77
2023/07/08 10:27:04;;;;;;;3.67;2.40;;;;;;;24.67;60.32;101636.91;6202375;28;20058;-77
2023/07/08 10:30:19;;;;;;;4.03;1.90;;;;;;;24.65;59.56;101620.91;6202404;28;20046;-77
2023/07/08 10:33:38;;;;;;;2.70;2.15;;;;;;;24.63;57.07;101622.91;6202041;28;20057;-77
2023/07/08 10:36:46;;;;;;;;;;;;;;;24.64;57.49;101613.84;6197667;28;20053;-77
2023/07/08 10:40:02;;;;;;;3.20;1.90;;;;;;;24.93;56.18;101623.53;6199369;28;19922;-77
2023/07/08 10:43:25;;;;;;;4.20;2.17;;;;;;;25.00;55.13;101614.69;6201871;28;20443;-77
2023/07/08 10:46:37;;;;;;;3.00;1.83;;;;;;;25.33;52.66;101620.38;6201848;28;20047;-77
2023/07/08 10:49:52;;;;;;;3.00;1.80;;;;;;;25.37;51.25;101612.81;6201791;28;20046;-77
2023/07/08 10:53:04;;;;;;;4.13;2.40;;;;;;;25.49;52.50;101600.81;6209548;28;20054;-78
2023/07/08 10:56:15;;;;;;;3.70;1.90;;;;;;;25.54;49.65;101599.31;6201907;28;20053;-77
2023/07/08 10:59:37;;;;;;;3.92;2.75;;;;;;;25.84;49.32;101610.63;6201574;28;20050;-78
2023/07/08 11:03:03;;;;;;;2.40;1.70;;;;;;;26.15;46.80;101612.78;6205282;28;20109;-77
2023/07/08 11:06:12;;;;;;;5.28;2.28;;;;;;;26.28;46.37;101603.22;6177528;28;20058;-77
2023/07/08 11:09:21;;;;;;;4.05;1.80;;;;;;;26.19;47.94;101603.38;6194282;28;20058;-78
2023/07/08 11:12:27;;;;;;;;;;;;;;;26.49;47.02;101597.44;6199126;28;20355;-77
2023/07/08 11:15:34;;;;;;;2.28;1.70;;;;;;;26.60;48.24;101606.19;6185871;28;19922;-78
2023/07/08 11:18:47;;;;;;;4.63;1.75;;;;;;;26.67;48.60;101597.28;6189243;28;20057;-78
2023/07/08 11:21:54;;;;;;;2.38;1.70;;;;;;;27.00;46.52;101600.84;6201167;28;20567;-78
2023/07/08 11:24:58;;;;;;;2.75;1.60;;;;;;;27.33;42.40;101597.31;6203164;28;20464;-78
2023/07/08 11:28:04;;;;;;;4.05;2.10;;;;;;;27.36;42.43;101587.03;6198191;28;20053;-77
2023/07/08 11:31:07;;;;;;;5.20;1.80;;;;;;;27.45;41.46;101583.28;6191995;28;20051;-77
2023/07/08 11:34:12;;;;;;;3.83;2.10;;;;;;;27.49;37.99;101590.03;6192667;28;20193;-77
2023/07/08 11:37:16;;;;;;;4.47;2.30;;;;;;;27.44;39.73;101581.63;6185337;28;20105;-77
2023/07/08 11:40:20;;;;;;;3.67;2.08;;;;;;;27.62;37.14;101576.00;6193577;28;20055;-77
2023/07/08 11:43:24;;;;;;;6.13;2.15;;;;;;;27.99;37.94;101588.06;6194722;28;20061;-77
2023/07/08 11:46:30;;;;;;;2.63;1.55;;;;;;;28.00;40.94;101582.47;6201172;28;20046;-77
2023/07/08 11:49:31;;;;;;;4.55;2.38;;;;;;;28.19;37.56;101572.25;6198033;28;20054;-77
2023/07/08 11:52:35;;;;;;;2.78;1.98;;;;;;;28.47;35.87;101569.91;6186364;28;20047;-77
2023/07/08 11:55:38;;;;;;;6.20;2.70;;;;;;;28.45;37.93;101563.84;6181470;28;20042;-77
2023/07/08 11:58:53;;;;;;;4.68;2.20;;;;;;;28.61;37.70;101562.88;6197799;28;20185;-77
2023/07/08 12:02:03;;;;;;;6.32;1.95;;;;;;;28.81;38.11;101554.09;6203528;28;20450;-77
2023/07/08 12:05:13;;;;;;;3.25;1.95;;;;;;;28.74;37.32;101558.53;6205754;28;20057;-77
2023/07/08 12:08:19;;;;;;;2.92;2.05;;;;;;;28.87;36.96;101552.53;6205145;28;20363;-77
2023/07/08 12:11:27;;;;;;;5.07;2.30;;;;;;;29.42;35.05;101559.47;6205526;28;20054;-77
2023/07/08 12:14:30;;;;;;;10.60;2.80;;;;;;;29.63;35.11;101556.06;6210519;28;20054;-77
2023/07/08 12:17:32;;;;;;;3.20;2.00;;;;;;;29.55;34.15;101550.72;6200274;28;20124;-77
2023/07/08 12:20:36;;;;;;;5.00;2.28;;;;;;;29.60;34.34;101559.13;6205248;28;20065;-77
2023/07/08 12:23:45;;;;;;;4.45;2.28;;;;;;;29.76;31.97;101550.81;6205143;28;20053;-77
2023/07/08 12:26:46;;;;;;;3.60;2.20;;;;;;;29.90;33.56;101540.97;6204989;28;20042;-77
2023/07/08 12:29:49;;;;;;;4.43;2.50;;;;;;;30.16;33.89;101548.63;6205037;28;20057;-78
2023/07/08 12:32:50;;;;;;;3.92;2.17;;;;;;;30.27;35.01;101550.81;6204409;28;20455;-77
2023/07/08 12:35:52;;;;;;;6.05;2.30;;;;;;;30.44;34.19;101537.88;6205012;28;20050;-77
2023/07/08 12:38:57;;;;;;;3.15;2.25;;;;;;;30.44;32.84;101539.75;6204531;28;20135;-77
2023/07/08 12:41:58;;;;;;;2.97;1.75;;;;;;;30.69;29.99;101541.00;6189697;28;20055;-77
2023/07/08 12:45:00;;;;;;;3.17;2.13;;;;;;;30.88;31.37;101534.09;6203334;28;20050;-77
2023/07/08 12:48:01;;;;;;;4.30;2.25;;;;;;;30.86;31.98;101533.47;6204440;28;20381;-77
2023/07/08 12:51:04;;;;;;;3.13;2.03;;;;;;;31.12;29.91;101535.56;6204395;28;20051;-77
2023/07/08 12:54:10;;;;;;;5.70;1.80;;;;;;;31.36;30.36;101533.44;6204052;28;20061;-77
2023/07/08 12:57:12;;;;;;;2.75;1.75;;;;;;;31.35;27.75;101539.91;6203700;28;20069;-76
2023/07/08 13:00:17;;;;;;;4.18;2.70;;;;;;;31.57;29.65;101542.34;6195469;28;20050;-77
2023/07/08 13:03:22;;;;;;;3.03;1.90;;;;;;;31.55;30.44;101538.16;6188949;28;20058;-77
2023/07/08 13:06:29;;;;;;;3.92;2.30;;;;;;;31.56;30.90;101539.81;6197729;28;20442;-76
2023/07/08 13:09:38;;;;;;;4.35;2.08;;;;;;;31.56;27.38;101526.22;6193198;28;20410;-77
2023/07/08 13:12:41;;;;;;;2.88;2.00;;;;;;;31.57;30.02;101534.19;6199720;28;20466;-77
2023/07/08 13:15:43;;;;;;;5.10;2.25;;;;;;;31.56;29.62;101532.50;6204036;28;20038;-77
2023/07/08 13:18:45;;;;;;;3.38;1.65;;;;;;;31.55;30.42;101524.56;6190952;28;20046;-77
2023/07/08 13:21:47;;;;;;;3.22;2.22;;;;;;;31.67;29.79;101527.56;6190110;28;20049;-77
2023/07/08 13:24:59;;;;;;;3.40;2.20;;;;;;;31.98;26.79;101527.91;6197417;28;20073;-77
2023/07/08 13:28:15;;;;;;;2.58;2.10;;;;;;;31.91;28.26;101523.50;6189246;28;20054;-77
2023/07/08 13:31:19;;;;;;;4.25;2.08;;;;;;;31.97;29.97;101530.81;6193440;28;20054;-77
2023/07/08 13:34:24;;;;;;;3.75;2.28;;;;;;;32.03;29.79;101532.75;6186030;28;20206;-77
2023/07/08 13:37:26;;;;;;;3.35;2.15;;;;;;;32.01;27.17;101526.66;6183826;28;20051;-77
2023/07/08 13:40:31;;;;;;;3.85;2.05;;;;;;;32.29;25.48;101518.34;6203540;28;20046;-77
2023/07/08 13:43:34;;;;;;;4.05;2.65;;;;;;;32.29;29.65;101513.78;6191619;28;20125;-76
2023/07/08 13:46:37;;;;;;;5.18;2.78;;;;;;;32.47;29.11;101510.47;6197991;28;20070;-76
2023/07/08 13:49:44;;;;;;;4.68;2.53;;;;;;;32.58;28.66;101517.19;6202187;28;20061;-77
2023/07/08 13:52:45;;;;;;;3.50;2.30;;;;;;;32.43;28.80;101511.94;6189726;28;20046;-76
2023/07/08 13:55:48;;;;;;;5.95;2.60;;;;;;;32.30;28.43;101520.06;6185676;28;20043;-77
2023/07/08 13:58:53;;;;;;;3.78;2.58;;;;;;;32.47;30.09;101517.78;6187299;28;20049;-77
2023/07/08 14:01:57;;;;;;;4.47;2.28;;;;;;;32.67;28.14;101521.38;6192364;28;20046;-77
2023/07/08 14:05:00;;;;;;;4.72;2.55;;;;;;;32.78;29.14;101518.00;6194467;28;20042;-77
2023/07/08 14:08:01;;;;;;;5.15;2.78;;;;;;;32.93;27.08;101512.41;6202709;28;20050;-77
2023/07/08 14:11:04;;;;;;;4.25;2.72;;;;;;;32.95;27.29;101514.91;6201754;28;20085;-77
2023/07/08 14:14:05;;;;;;;6.32;3.13;;;;;;;33.07;27.40;101511.34;6202434;28;20050;-77
2023/07/08 14:17:10;;;;;;;3.88;2.20;;;;;;;33.03;28.42;101503.78;6202273;28;20042;-76